createdAt,value
2017-12-02T00:01:14.665Z,23.15
2017-12-02T00:03:42.954Z,22.52
2017-12-02T00:06:10.589Z,23.73
2017-12-02T00:08:38.310Z,23.83
2017-12-02T00:11:05.998Z,25.23
2017-12-02T00:13:33.556Z,23.33
2017-12-02T00:16:01.152Z,21.35
2017-12-02T00:18:28.825Z,25.37
2017-12-02T00:20:56.475Z,26.48
2017-12-02T00:23:24.136Z,25.73
2017-12-02T00:25:52.822Z,23.05
2017-12-02T00:28:20.418Z,27.40
2017-12-02T00:30:47.999Z,24.17
2017-12-02T00:33:15.540Z,23.77
2017-12-02T00:35:43.067Z,24.17
2017-12-02T00:38:10.693Z,24.08
2017-12-02T00:40:38.207Z,23.80
2017-12-02T00:43:05.819Z,23.12
2017-12-02T00:45:33.312Z,23.35
2017-12-02T00:48:00.831Z,22.52
2017-12-02T00:50:29.089Z,23.08
2017-12-02T00:52:56.592Z,24.20
2017-12-02T00:55:24.070Z,23.45
2017-12-02T00:57:51.587Z,24.52
2017-12-02T01:00:19.855Z,25.65
2017-12-02T01:02:47.383Z,22.20
2017-12-02T01:05:14.906Z,25.52
2017-12-02T01:07:42.517Z,23.62
2017-12-02T01:10:10.043Z,24.27
2017-12-02T01:12:37.546Z,24.27
2017-12-02T01:15:05.825Z,24.80
2017-12-02T01:17:34.098Z,23.73
2017-12-02T01:20:02.426Z,25.27
2017-12-02T01:22:29.993Z,23.90
2017-12-02T01:24:57.498Z,23.95
2017-12-02T01:27:25.089Z,25.62
2017-12-02T01:29:52.599Z,24.75
2017-12-02T01:32:20.909Z,24.58
2017-12-02T01:34:49.236Z,24.75
2017-12-02T01:37:16.824Z,22.30
2017-12-02T01:39:44.431Z,23.67
2017-12-02T01:42:11.915Z,25.23
2017-12-02T01:44:39.483Z,23.55
2017-12-02T01:47:07.057Z,22.87
2017-12-02T01:49:34.588Z,22.15
2017-12-02T01:52:02.253Z,21.70
2017-12-02T01:54:29.721Z,22.45
2017-12-02T01:56:57.310Z,23.23
2017-12-02T01:59:25.019Z,22.77
2017-12-02T02:01:52.631Z,19.60
2017-12-02T02:04:20.371Z,22.45
2017-12-02T02:06:48.000Z,20.88
2017-12-02T02:09:15.566Z,20.48
2017-12-02T02:11:43.142Z,21.70
2017-12-02T02:14:11.702Z,21.10
2017-12-02T02:16:39.323Z,20.73
2017-12-02T02:19:07.034Z,21.55
2017-12-02T02:21:34.614Z,20.80
2017-12-02T02:24:02.154Z,20.10
2017-12-02T02:26:29.727Z,20.45
2017-12-02T02:28:58.048Z,20.40
2017-12-02T02:31:25.716Z,21.73
2017-12-02T02:33:53.350Z,19.77
2017-12-02T02:36:20.966Z,20.58
2017-12-02T02:38:49.897Z,21.80
2017-12-02T02:41:17.541Z,21.23
2017-12-02T02:43:45.081Z,21.25
2017-12-02T02:46:12.577Z,19.95
2017-12-02T02:48:40.176Z,21.42
2017-12-02T02:51:07.691Z,20.08
2017-12-02T02:53:36.019Z,20.67
2017-12-02T02:56:03.533Z,19.73
2017-12-02T02:58:31.853Z,19.55
2017-12-02T03:00:59.373Z,22.40
2017-12-02T03:03:26.874Z,23.25
2017-12-02T03:05:54.427Z,23.25
2017-12-02T03:08:21.985Z,22.40
2017-12-02T03:10:49.547Z,22.80
2017-12-02T03:13:17.112Z,24.75
2017-12-02T03:15:44.668Z,22.85
2017-12-02T03:18:12.206Z,25.27
2017-12-02T03:20:39.752Z,25.23
2017-12-02T03:23:07.271Z,29.67
2017-12-02T03:25:34.839Z,28.77
2017-12-02T03:28:03.480Z,31.10
2017-12-02T03:30:32.103Z,28.87
2017-12-02T03:32:59.892Z,29.60
2017-12-02T03:35:29.743Z,30.60
2017-12-02T03:37:57.345Z,28.25
2017-12-02T03:40:29.947Z,28.95
2017-12-02T03:43:00.714Z,30.05
2017-12-02T03:45:31.932Z,31.15
2017-12-02T03:47:59.863Z,27.25
2017-12-02T03:50:30.354Z,29.73
2017-12-02T03:52:59.301Z,28.25
2017-12-02T03:55:28.457Z,27.65
2017-12-02T03:57:56.288Z,26.20
2017-12-02T04:00:25.760Z,27.77
2017-12-02T04:02:54.028Z,23.23
2017-12-02T04:05:22.500Z,24.00
2017-12-02T04:07:51.039Z,24.08
2017-12-02T04:10:18.591Z,25.85
2017-12-02T04:12:46.221Z,24.60
2017-12-02T04:15:13.869Z,23.23
2017-12-02T04:17:42.227Z,25.77
2017-12-02T04:20:09.841Z,26.02
2017-12-02T04:22:37.467Z,25.27
2017-12-02T04:25:05.210Z,25.25
2017-12-02T04:27:33.652Z,25.27
2017-12-02T04:30:01.283Z,25.20
2017-12-02T04:32:29.672Z,22.80
2017-12-02T04:34:58.297Z,24.87
2017-12-02T04:37:26.915Z,22.35
2017-12-02T04:39:55.327Z,23.05
2017-12-02T04:42:22.899Z,25.10
2017-12-02T04:44:50.439Z,23.27
2017-12-02T04:47:18.720Z,21.27
2017-12-02T04:49:46.265Z,23.17
2017-12-02T04:52:13.757Z,23.55
2017-12-02T04:54:41.296Z,22.77
2017-12-02T04:57:08.829Z,22.80
2017-12-02T04:59:36.420Z,24.50
2017-12-02T05:02:03.994Z,25.98
2017-12-02T05:04:31.535Z,24.33
2017-12-02T05:06:59.067Z,22.45
2017-12-02T05:09:27.624Z,22.50
2017-12-02T05:11:55.214Z,23.00
2017-12-02T05:14:22.974Z,23.45
2017-12-02T05:16:50.466Z,23.27
2017-12-02T05:19:18.032Z,23.60
2017-12-02T05:21:45.533Z,22.20
2017-12-02T05:24:13.199Z,24.10
2017-12-02T05:26:40.859Z,22.37
2017-12-02T05:29:08.416Z,22.90
2017-12-02T05:31:36.850Z,21.60
2017-12-02T05:34:04.430Z,23.38
2017-12-02T05:36:32.078Z,21.87
2017-12-02T05:38:59.752Z,22.10
2017-12-02T05:41:40.699Z,22.85
2017-12-02T05:44:08.280Z,24.87
2017-12-02T05:46:35.762Z,23.77
2017-12-02T05:49:03.394Z,21.23
2017-12-02T05:51:30.884Z,22.95
2017-12-02T05:53:58.362Z,24.08
2017-12-02T05:56:25.850Z,22.23
2017-12-02T05:58:54.112Z,23.15
2017-12-02T06:01:22.467Z,21.85
2017-12-02T06:03:50.096Z,21.90
2017-12-02T06:06:17.729Z,22.83
2017-12-02T06:08:45.443Z,22.37
2017-12-02T06:11:12.931Z,23.20
2017-12-02T06:13:40.443Z,22.73
2017-12-02T06:16:07.950Z,19.98
2017-12-02T06:18:35.418Z,19.95
2017-12-02T06:21:03.045Z,21.15
2017-12-02T06:23:30.543Z,20.15
2017-12-02T06:25:58.082Z,19.33
2017-12-02T06:28:25.582Z,20.62
2017-12-02T06:30:53.086Z,21.15
2017-12-02T06:33:20.558Z,23.02
2017-12-02T06:35:48.160Z,20.42
2017-12-02T06:38:15.766Z,22.30
2017-12-02T06:40:44.036Z,22.58
2017-12-02T06:43:11.516Z,20.27
2017-12-02T06:45:38.966Z,21.25
2017-12-02T06:48:07.184Z,20.60
2017-12-02T06:50:34.648Z,20.85
2017-12-02T06:53:02.132Z,21.58
2017-12-02T06:55:30.502Z,21.02
2017-12-02T06:57:57.966Z,21.15
2017-12-02T07:00:25.428Z,20.20
2017-12-02T07:02:52.890Z,20.80
2017-12-02T07:05:20.346Z,20.37
2017-12-02T07:07:47.839Z,18.87
2017-12-02T07:10:15.338Z,21.25
2017-12-02T07:12:42.828Z,21.95
2017-12-02T07:15:11.063Z,19.30
2017-12-02T07:17:38.530Z,21.48
2017-12-02T07:20:06.018Z,21.77
2017-12-02T07:22:33.488Z,20.98
2017-12-02T07:25:01.754Z,21.52
2017-12-02T07:27:29.974Z,20.77
2017-12-02T07:29:57.442Z,20.75
2017-12-02T07:32:24.910Z,22.23
2017-12-02T07:34:52.377Z,21.40
2017-12-02T07:37:19.854Z,22.60
2017-12-02T07:39:48.076Z,21.48
2017-12-02T07:42:15.554Z,23.48
2017-12-02T07:44:43.046Z,21.90
2017-12-02T07:47:11.262Z,22.45
2017-12-02T07:49:38.730Z,22.20
2017-12-02T07:52:06.198Z,23.73
2017-12-02T07:54:33.653Z,23.10
2017-12-02T07:57:01.114Z,25.00
2017-12-02T07:59:28.657Z,24.37
2017-12-02T08:01:56.113Z,25.88
2017-12-02T08:04:23.622Z,23.52
2017-12-02T08:06:51.846Z,25.48
2017-12-02T08:09:19.302Z,24.60
2017-12-02T08:11:46.757Z,24.95
2017-12-02T08:14:14.205Z,22.85
2017-12-02T08:16:41.679Z,25.05
2017-12-02T08:19:09.142Z,23.48
2017-12-02T08:21:36.651Z,23.87
2017-12-02T08:24:04.143Z,24.85
2017-12-02T08:26:31.728Z,27.02
2017-12-02T08:28:59.359Z,26.67
2017-12-02T08:31:26.839Z,25.35
2017-12-02T08:33:54.302Z,24.65
2017-12-02T08:36:21.759Z,24.40
2017-12-02T08:38:49.226Z,26.02
2017-12-02T08:41:16.691Z,27.33
2017-12-02T08:43:44.147Z,28.80
2017-12-02T08:46:12.380Z,28.67
2017-12-02T08:48:39.921Z,28.45
2017-12-02T08:51:07.395Z,28.20
2017-12-02T08:53:34.850Z,26.42
2017-12-02T08:56:02.306Z,30.55
2017-12-02T08:58:29.786Z,29.35
2017-12-02T09:00:57.226Z,25.30
2017-12-02T09:03:24.675Z,27.90
2017-12-02T09:05:52.135Z,27.62
2017-12-02T09:08:19.591Z,27.58
2017-12-02T09:10:47.052Z,27.08
2017-12-02T09:13:14.527Z,26.35
2017-12-02T09:15:42.043Z,26.83
2017-12-02T09:18:09.495Z,24.85
2017-12-02T09:20:36.964Z,24.12
2017-12-02T09:23:04.410Z,26.30
2017-12-02T09:25:31.875Z,26.75
2017-12-02T09:27:59.328Z,24.75
2017-12-02T09:30:26.774Z,24.33
2017-12-02T09:32:54.250Z,23.33
2017-12-02T09:35:21.702Z,23.70
2017-12-02T09:37:49.173Z,24.52
2017-12-02T09:40:16.637Z,25.10
2017-12-02T09:42:44.101Z,23.45
2017-12-02T09:45:11.563Z,25.00
2017-12-02T09:47:39.010Z,24.80
2017-12-02T09:50:06.461Z,26.08
2017-12-02T09:52:33.922Z,26.70
2017-12-02T09:55:01.386Z,26.58
2017-12-02T09:57:28.842Z,26.48
2017-12-02T09:59:56.293Z,27.05
2017-12-02T10:02:23.752Z,27.80
2017-12-02T10:04:51.204Z,27.20
2017-12-02T10:07:18.660Z,25.37
2017-12-02T10:09:46.141Z,24.48
2017-12-02T10:12:13.593Z,26.05
2017-12-02T10:14:41.078Z,25.20
2017-12-02T10:17:09.294Z,26.67
2017-12-02T10:19:36.744Z,25.02
2017-12-02T10:22:04.185Z,23.98
2017-12-02T10:24:31.654Z,23.60
2017-12-02T10:26:59.103Z,22.62
2017-12-02T10:29:26.582Z,22.20
2017-12-02T10:31:54.041Z,21.17
2017-12-02T10:34:21.499Z,21.80
2017-12-02T10:36:48.959Z,21.90
2017-12-02T10:39:16.413Z,21.83
2017-12-02T10:41:43.874Z,20.73
2017-12-02T10:44:11.325Z,20.12
2017-12-02T10:46:38.801Z,22.15
2017-12-02T10:49:07.238Z,21.92
2017-12-02T10:51:34.697Z,22.13
2017-12-02T10:54:02.166Z,21.27
2017-12-02T10:56:29.612Z,21.58
2017-12-02T10:58:57.143Z,21.35
2017-12-02T11:01:25.375Z,21.75
2017-12-02T11:03:52.829Z,21.62
2017-12-02T11:06:20.286Z,23.23
2017-12-02T11:08:47.764Z,22.75
2017-12-02T11:11:16.213Z,24.12
2017-12-02T11:13:43.670Z,25.70
2017-12-02T11:16:11.161Z,24.15
2017-12-02T11:18:38.620Z,23.00
2017-12-02T11:21:06.096Z,22.27
2017-12-02T11:23:34.329Z,23.73
2017-12-02T11:26:01.802Z,22.85
2017-12-02T11:28:29.325Z,21.70
2017-12-02T11:30:56.729Z,22.65
2017-12-02T11:33:24.161Z,20.95
2017-12-02T11:35:51.632Z,24.63
2017-12-02T11:38:19.093Z,24.20
2017-12-02T11:40:46.549Z,24.77
2017-12-02T11:43:14.003Z,23.35
2017-12-02T11:45:41.481Z,24.35
2017-12-02T11:48:09.699Z,22.77
2017-12-02T11:50:37.150Z,23.65
2017-12-02T11:53:04.636Z,24.17
2017-12-02T11:55:32.119Z,25.62
2017-12-02T11:57:59.577Z,24.63
2017-12-02T12:00:27.802Z,22.90
2017-12-02T12:03:13.483Z,22.25
2017-12-02T12:05:41.716Z,22.52
2017-12-02T12:08:09.951Z,20.52
2017-12-02T12:10:37.415Z,21.35
2017-12-02T12:13:04.890Z,22.52
2017-12-02T12:15:32.356Z,22.95
2017-12-02T12:17:59.840Z,20.60
2017-12-02T12:20:27.320Z,22.10
2017-12-02T12:22:54.792Z,22.20
2017-12-02T12:25:22.258Z,19.08
2017-12-02T12:27:49.714Z,20.98
2017-12-02T12:30:17.227Z,23.90
2017-12-02T12:32:44.679Z,22.42
2017-12-02T12:35:12.121Z,21.83
2017-12-02T12:37:40.361Z,20.95
2017-12-02T12:40:07.843Z,22.52
2017-12-02T12:42:35.310Z,21.27
2017-12-02T12:45:03.557Z,20.60
2017-12-02T12:47:31.022Z,20.70
2017-12-02T12:49:58.474Z,22.17
2017-12-02T12:52:25.929Z,23.15
2017-12-02T12:54:53.373Z,23.73
2017-12-02T12:57:20.836Z,24.80
2017-12-02T12:59:48.285Z,23.40
2017-12-02T13:02:15.771Z,24.50
2017-12-02T13:04:44.645Z,24.85
2017-12-02T13:07:12.115Z,25.95
2017-12-02T13:09:39.566Z,25.10
2017-12-02T13:12:07.030Z,25.62
2017-12-02T13:14:35.259Z,24.42
2017-12-02T13:17:02.748Z,25.92
2017-12-02T13:19:30.219Z,24.40
2017-12-02T13:21:57.665Z,25.08
2017-12-02T13:24:25.180Z,23.27
2017-12-02T13:26:52.695Z,24.45
2017-12-02T13:29:20.158Z,25.40
2017-12-02T13:31:48.377Z,26.50
2017-12-02T13:34:15.840Z,25.90
2017-12-02T13:36:43.331Z,26.23
2017-12-02T13:39:10.789Z,23.42
2017-12-02T13:41:38.325Z,25.35
2017-12-02T13:44:05.777Z,23.58
2017-12-02T13:46:33.303Z,25.75
2017-12-02T13:49:00.750Z,23.83
2017-12-02T13:51:28.201Z,23.23
2017-12-02T13:53:56.424Z,24.35
2017-12-02T13:56:23.869Z,26.37
2017-12-02T13:58:51.337Z,25.00
2017-12-02T14:01:18.798Z,25.50
2017-12-02T14:03:46.279Z,24.27
2017-12-02T14:06:13.721Z,22.30
2017-12-02T14:08:41.202Z,23.80
2017-12-02T14:11:09.410Z,23.08
2017-12-02T14:13:36.862Z,22.42
2017-12-02T14:16:04.310Z,23.73
2017-12-02T14:18:31.757Z,24.52
2017-12-02T14:20:59.977Z,23.23
2017-12-02T14:23:27.456Z,24.60
2017-12-02T14:25:54.916Z,24.23
2017-12-02T14:28:22.392Z,22.35
2017-12-02T14:30:50.618Z,23.50
2017-12-02T14:33:18.095Z,23.27
2017-12-02T14:35:45.602Z,21.75
2017-12-02T14:38:13.073Z,22.60
2017-12-02T14:40:40.527Z,24.35
2017-12-02T14:43:07.973Z,25.02
2017-12-02T14:45:35.435Z,23.87
2017-12-02T14:48:02.907Z,24.70
2017-12-02T14:50:30.378Z,22.70
2017-12-02T14:52:57.850Z,25.25
2017-12-02T14:55:25.374Z,24.87
2017-12-02T14:57:52.824Z,20.95
2017-12-02T15:00:20.286Z,22.15
2017-12-02T15:02:47.750Z,22.75
2017-12-02T15:05:15.206Z,21.85
2017-12-02T15:07:42.654Z,23.95
2017-12-02T15:10:10.118Z,23.60
2017-12-02T15:12:37.574Z,21.95
2017-12-02T15:15:05.038Z,22.30
2017-12-02T15:17:32.487Z,26.70
2017-12-02T15:19:59.970Z,24.65
2017-12-02T15:22:27.415Z,24.42
2017-12-02T15:24:54.863Z,24.42
2017-12-02T15:27:23.130Z,21.92
2017-12-02T15:29:50.582Z,24.90
2017-12-02T15:32:18.040Z,23.20
2017-12-02T15:34:45.505Z,27.98
2017-12-02T15:37:12.963Z,25.98
2017-12-02T15:39:40.415Z,25.00
2017-12-02T15:42:07.863Z,24.63
2017-12-02T15:44:35.334Z,23.62
2017-12-02T15:47:02.820Z,24.37
2017-12-02T15:49:30.275Z,23.50
2017-12-02T15:51:57.733Z,22.90
2017-12-02T15:54:25.189Z,24.50
2017-12-02T15:56:52.651Z,23.48
2017-12-02T15:59:20.097Z,24.58
2017-12-02T16:01:47.554Z,23.15
2017-12-02T16:04:15.014Z,23.42
2017-12-02T16:06:42.465Z,21.70
2017-12-02T16:09:09.921Z,23.17
2017-12-02T16:11:37.410Z,21.90
2017-12-02T16:14:04.862Z,23.30
2017-12-02T16:16:32.323Z,25.62
2017-12-02T16:18:59.782Z,23.35
2017-12-02T16:21:27.243Z,25.60
2017-12-02T16:23:54.707Z,25.83
2017-12-02T16:26:22.177Z,22.40
2017-12-02T16:28:50.406Z,24.30
2017-12-02T16:31:17.862Z,23.30
2017-12-02T16:33:47.039Z,22.77
2017-12-02T16:36:14.499Z,24.23
2017-12-02T16:38:41.953Z,20.42
2017-12-02T16:41:09.455Z,21.40
2017-12-02T16:43:36.909Z,22.65
2017-12-02T16:46:04.371Z,25.65
2017-12-02T16:48:31.859Z,25.73
2017-12-02T16:50:59.330Z,26.40
2017-12-02T16:53:26.798Z,25.85
2017-12-02T16:55:54.271Z,26.75
2017-12-02T16:58:21.726Z,23.05
2017-12-02T17:00:49.182Z,24.40
2017-12-02T17:03:16.654Z,21.42
2017-12-02T17:05:44.091Z,24.98
2017-12-02T17:08:11.549Z,24.33
2017-12-02T17:10:39.040Z,25.33
2017-12-02T17:13:07.286Z,26.92
2017-12-02T17:15:34.746Z,25.30
2017-12-02T17:18:02.237Z,21.98
2017-12-02T17:20:30.470Z,24.15
2017-12-02T17:23:04.573Z,22.98
2017-12-02T17:25:32.021Z,22.98
2017-12-02T17:27:59.514Z,20.52
2017-12-02T17:30:26.974Z,21.95
2017-12-02T17:32:54.458Z,25.33
2017-12-02T17:35:22.697Z,23.30
2017-12-02T17:37:50.559Z,23.00
2017-12-02T17:40:18.069Z,21.50
2017-12-02T17:42:45.578Z,24.77
2017-12-02T17:45:13.078Z,22.10
2017-12-02T17:47:41.313Z,21.67
2017-12-02T17:50:08.794Z,21.65
2017-12-02T17:52:36.285Z,20.88
2017-12-02T17:55:03.750Z,22.20
2017-12-02T17:57:31.230Z,22.95
2017-12-02T17:59:58.750Z,20.08
2017-12-02T18:02:26.228Z,22.25
2017-12-02T18:04:53.722Z,22.50
2017-12-02T18:07:21.173Z,21.48
2017-12-02T18:09:48.621Z,23.10
2017-12-02T18:12:16.083Z,23.00
2017-12-02T18:14:43.537Z,22.85
2017-12-02T18:17:11.017Z,24.30
2017-12-02T18:19:38.459Z,24.05
2017-12-02T18:22:06.008Z,21.60
2017-12-02T18:24:33.493Z,20.77
2017-12-02T18:27:00.958Z,22.50
2017-12-02T18:29:29.200Z,22.95
2017-12-02T18:31:57.471Z,21.52
2017-12-02T18:34:24.951Z,22.33
2017-12-02T18:36:52.425Z,23.48
2017-12-02T18:39:20.663Z,21.25
2017-12-02T18:41:48.120Z,21.45
2017-12-02T18:44:15.604Z,22.70
2017-12-02T18:46:43.056Z,19.40
2017-12-02T18:49:10.643Z,22.83
2017-12-02T18:51:38.122Z,20.90
2017-12-02T18:54:06.476Z,23.80
2017-12-02T18:56:34.694Z,21.65
2017-12-02T18:59:02.164Z,20.12
2017-12-02T19:01:29.666Z,22.35
2017-12-02T19:03:57.167Z,21.30
2017-12-02T19:06:24.649Z,19.98
2017-12-02T19:08:52.142Z,19.70
2017-12-02T19:11:19.598Z,18.92
2017-12-02T19:13:47.066Z,18.85
2017-12-02T19:16:14.533Z,16.37
2017-12-02T19:18:42.034Z,18.45
2017-12-02T19:21:09.490Z,18.73
2017-12-02T19:23:36.942Z,18.23
2017-12-02T19:26:04.413Z,21.95
2017-12-02T19:28:31.889Z,17.17
2017-12-02T19:31:00.100Z,20.33
2017-12-02T19:33:27.562Z,18.35
2017-12-02T19:35:55.022Z,17.77
2017-12-02T19:38:22.673Z,20.65
2017-12-02T19:40:50.137Z,18.25
2017-12-02T19:43:17.586Z,19.12
2017-12-02T19:45:45.067Z,18.00
2017-12-02T19:48:12.545Z,19.65
2017-12-02T19:50:40.037Z,19.60
2017-12-02T19:53:07.508Z,20.17
2017-12-02T19:55:34.981Z,18.83
2017-12-02T19:58:02.450Z,18.58
2017-12-02T20:00:29.933Z,19.98
2017-12-02T20:02:58.165Z,20.20
2017-12-02T20:05:25.709Z,17.75
2017-12-02T20:07:53.194Z,17.48
2017-12-02T20:10:20.680Z,16.30
2017-12-02T20:12:48.146Z,17.45
2017-12-02T20:15:17.616Z,18.10
2017-12-02T20:17:45.332Z,19.33
2017-12-02T20:20:13.214Z,18.00
2017-12-02T20:22:40.735Z,18.12
2017-12-02T20:25:09.009Z,18.92
2017-12-02T20:27:36.496Z,19.33
2017-12-02T20:30:03.954Z,19.65
2017-12-02T20:32:31.408Z,18.58
2017-12-02T20:34:58.889Z,18.73
2017-12-02T20:37:26.378Z,18.77
2017-12-02T20:39:53.828Z,20.25
2017-12-02T20:42:21.326Z,22.15
2017-12-02T20:44:48.810Z,19.52
2017-12-02T20:47:16.283Z,22.05
2017-12-02T20:49:43.760Z,20.83
2017-12-02T20:52:11.250Z,23.42
2017-12-02T20:54:38.708Z,21.02
2017-12-02T20:57:07.033Z,25.45
2017-12-02T20:59:34.515Z,23.98
2017-12-02T21:02:02.000Z,20.67
2017-12-02T21:04:30.226Z,23.10
2017-12-02T21:06:57.701Z,23.38
2017-12-02T21:09:25.174Z,21.98
2017-12-02T21:11:52.688Z,23.48
2017-12-02T21:14:20.163Z,23.75
2017-12-02T21:16:47.697Z,22.73
2017-12-02T21:19:16.687Z,25.00
2017-12-02T21:21:44.160Z,24.50
2017-12-02T21:24:11.620Z,24.30
2017-12-02T21:26:39.086Z,25.67
2017-12-02T21:29:06.557Z,25.98
2017-12-02T21:31:34.005Z,26.45
2017-12-02T21:34:01.567Z,29.80
2017-12-02T21:36:29.118Z,29.67
2017-12-02T21:38:56.646Z,31.60
2017-12-02T21:41:24.096Z,26.25
2017-12-02T21:43:51.564Z,27.08
2017-12-02T21:46:19.033Z,27.40
2017-12-02T21:48:46.498Z,22.52
2017-12-02T21:51:13.949Z,25.98
2017-12-02T21:53:41.411Z,26.27
2017-12-02T21:56:08.920Z,25.77
2017-12-02T21:58:36.343Z,23.85
2017-12-02T22:01:03.793Z,23.17
2017-12-02T22:03:31.249Z,24.85
2017-12-02T22:05:58.705Z,24.15
2017-12-02T22:08:26.160Z,24.10
2017-12-02T22:10:53.597Z,22.95
2017-12-02T22:13:21.084Z,23.58
2017-12-02T22:15:48.561Z,24.75
2017-12-02T22:18:16.776Z,24.60
2017-12-02T22:20:44.231Z,26.23
2017-12-02T22:23:11.691Z,23.12
2017-12-02T22:25:39.141Z,23.77
2017-12-02T22:28:06.593Z,24.35
2017-12-02T22:30:34.033Z,22.25
2017-12-02T22:33:01.496Z,23.90
2017-12-02T22:35:28.954Z,23.80
2017-12-02T22:37:56.422Z,22.60
2017-12-02T22:40:23.883Z,22.45
2017-12-02T22:42:51.350Z,22.10
2017-12-02T22:45:18.811Z,24.90
2017-12-02T22:47:46.938Z,21.98
2017-12-02T22:50:15.166Z,23.67
2017-12-02T22:52:42.625Z,22.73
2017-12-02T22:55:10.115Z,22.77
2017-12-02T22:57:37.571Z,23.38
2017-12-02T23:00:05.017Z,23.48
2017-12-02T23:02:32.506Z,25.00
2017-12-02T23:05:00.765Z,22.92
2017-12-02T23:07:28.999Z,23.77
2017-12-02T23:09:56.462Z,23.52
2017-12-02T23:12:24.268Z,22.58
2017-12-02T23:14:51.970Z,24.87
2017-12-02T23:17:21.950Z,23.83
2017-12-02T23:19:50.550Z,26.70
2017-12-02T23:22:18.033Z,28.42
2017-12-02T23:24:46.943Z,25.00
2017-12-02T23:27:14.451Z,26.10
2017-12-02T23:29:58.420Z,25.33
2017-12-02T23:32:27.364Z,24.30
2017-12-02T23:34:55.135Z,24.52
2017-12-02T23:37:23.433Z,24.35
2017-12-02T23:39:50.953Z,24.50
2017-12-02T23:42:18.511Z,24.15
2017-12-02T23:44:49.036Z,24.58
2017-12-02T23:49:50.966Z,23.90
2017-12-02T23:52:18.413Z,27.00
2017-12-02T23:54:45.865Z,26.17
2017-12-02T23:57:13.324Z,23.40
2017-12-02T23:59:40.798Z,24.23
